N990QS LIEO-LEPA
Flight info
| Callsign | N990QS |
|---|---|
| Flight time | N/A |
| Altitude | 39000 |
| Route | SUTAD DCT USEPI DCT GOKMI DCT SUPUX DCT KUPIM DCT SUXER DCT RIPAL DCT MORSS |
| Aircraft | C750/M-SBDE3FGHRWXY/S |
Departure
| Time | 2026-04-27 19:10 |
|---|---|
| Airport | Olbia Costa Smeralda Airport (LIEO) |
Arrival
| Time | N/A |
|---|---|
| Airport | Palma de Mallorca Airport (LEPA) |
| Time | Latitude | Longitude | Altitude | Speed | Heading |
|---|---|---|---|---|---|
| 2026-04-27 19:04 | 40.89682 | 9.50453 | 31 ft | 0 kts | 285° |
| 2026-04-27 19:05 | 40.89684 | 9.50440 | 31 ft | 2 kts | 280° |
| 2026-04-27 19:06 | 40.89676 | 9.50431 | 31 ft | 1 kts | 186° |
| 2026-04-27 19:06 | 40.89669 | 9.50441 | 31 ft | 2 kts | 116° |
| 2026-04-27 19:06 | 40.89657 | 9.50455 | 31 ft | 3 kts | 148° |
| 2026-04-27 19:06 | 40.89636 | 9.50454 | 31 ft | 1 kts | 235° |
| 2026-04-27 19:07 | 40.89626 | 9.50432 | 31 ft | 4 kts | 237° |
| 2026-04-27 19:07 | 40.89607 | 9.50392 | 31 ft | 6 kts | 237° |
| 2026-04-27 19:07 | 40.89578 | 9.50337 | 31 ft | 8 kts | 236° |
| 2026-04-27 19:07 | 40.89542 | 9.50268 | 31 ft | 6 kts | 231° |
| 2026-04-27 19:08 | 40.89521 | 9.50261 | 31 ft | 4 kts | 161° |
| 2026-04-27 19:08 | 40.89494 | 9.50286 | 31 ft | 6 kts | 145° |
| 2026-04-27 19:08 | 40.89454 | 9.50323 | 31 ft | 8 kts | 146° |
| 2026-04-27 19:08 | 40.89401 | 9.50371 | 31 ft | 10 kts | 145° |
| 2026-04-27 19:09 | 40.89337 | 9.50418 | 31 ft | 10 kts | 152° |
| 2026-04-27 19:09 | 40.89291 | 9.50485 | 31 ft | 9 kts | 126° |
| 2026-04-27 19:09 | 40.89271 | 9.50562 | 31 ft | 8 kts | 100° |
| 2026-04-27 19:09 | 40.89281 | 9.50638 | 31 ft | 18 kts | 53° |
| 2026-04-27 19:10 | 40.89567 | 9.51181 | 31 ft | 126 kts | 54° |
| 2026-04-27 19:10 | 40.90133 | 9.52231 | 440 ft | 145 kts | 57° |
| 2026-04-27 19:10 | 40.90727 | 9.53407 | 961 ft | 164 kts | 58° |
| 2026-04-27 19:10 | 40.91170 | 9.54279 | 1288 ft | 181 kts | 57° |
| 2026-04-27 19:11 | 40.92221 | 9.56246 | 2016 ft | 213 kts | 56° |
| 2026-04-27 19:11 | 40.93127 | 9.57938 | 2567 ft | 240 kts | 56° |
| 2026-04-27 19:11 | 40.94103 | 9.59772 | 3564 ft | 242 kts | 55° |
| 2026-04-27 19:11 | 40.95075 | 9.61599 | 4665 ft | 245 kts | 54° |
| 2026-04-27 19:12 | 40.96062 | 9.63454 | 5677 ft | 250 kts | 54° |
| 2026-04-27 19:12 | 40.97017 | 9.65409 | 6493 ft | 262 kts | 63° |
| 2026-04-27 19:12 | 40.97281 | 9.67895 | 6880 ft | 289 kts | 100° |
| 2026-04-27 19:12 | 40.96383 | 9.70199 | 7984 ft | 284 kts | 132° |
| 2026-04-27 19:13 | 40.94873 | 9.71865 | 9066 ft | 284 kts | 146° |
| 2026-04-27 19:13 | 40.93229 | 9.73339 | 10059 ft | 289 kts | 147° |
| 2026-04-27 19:13 | 40.91554 | 9.74923 | 10578 ft | 308 kts | 144° |
| 2026-04-27 19:13 | 40.89784 | 9.76710 | 10796 ft | 334 kts | 143° |
| 2026-04-27 19:14 | 40.87860 | 9.78633 | 10968 ft | 358 kts | 144° |
| 2026-04-27 19:14 | 40.85848 | 9.80583 | 11740 ft | 360 kts | 144° |
| 2026-04-27 19:14 | 40.83760 | 9.82403 | 12434 ft | 364 kts | 154° |
| 2026-04-27 19:14 | 40.81303 | 9.83187 | 13053 ft | 367 kts | 177° |
| 2026-04-27 19:15 | 40.78775 | 9.82787 | 13709 ft | 369 kts | 194° |
| 2026-04-27 19:15 | 40.76280 | 9.81939 | 14375 ft | 373 kts | 196° |
| 2026-04-27 19:15 | 40.73769 | 9.81061 | 15048 ft | 375 kts | 195° |
| 2026-04-27 19:15 | 40.71236 | 9.80214 | 15719 ft | 378 kts | 194° |
| 2026-04-27 19:16 | 40.68687 | 9.79378 | 16449 ft | 379 kts | 195° |
| 2026-04-27 19:16 | 40.66983 | 9.78809 | 16927 ft | 381 kts | 195° |
| 2026-04-27 19:16 | 40.63556 | 9.77651 | 17916 ft | 383 kts | 195° |
| 2026-04-27 19:16 | 40.61013 | 9.76591 | 18499 ft | 388 kts | 205° |
| 2026-04-27 19:17 | 40.58766 | 9.74640 | 19104 ft | 390 kts | 220° |
| 2026-04-27 19:17 | 40.56962 | 9.71986 | 19783 ft | 391 kts | 232° |
| 2026-04-27 19:17 | 40.55292 | 9.69159 | 20485 ft | 394 kts | 232° |
| 2026-04-27 19:17 | 40.53608 | 9.66303 | 21079 ft | 400 kts | 232° |
| 2026-04-27 19:18 | 40.51892 | 9.63396 | 21705 ft | 403 kts | 233° |
| 2026-04-27 19:18 | 40.50531 | 9.60162 | 22283 ft | 408 kts | 248° |
| 2026-04-27 19:18 | 40.49753 | 9.56572 | 22904 ft | 413 kts | 260° |
| 2026-04-27 19:18 | 40.49616 | 9.52801 | 23517 ft | 417 kts | 272° |
| 2026-04-27 19:19 | 40.49820 | 9.48999 | 24088 ft | 420 kts | 274° |
| 2026-04-27 19:19 | 40.50035 | 9.45173 | 24653 ft | 422 kts | 274° |
| 2026-04-27 19:19 | 40.50233 | 9.41328 | 25248 ft | 424 kts | 273° |
| 2026-04-27 19:19 | 40.50428 | 9.37461 | 25789 ft | 426 kts | 273° |
| 2026-04-27 19:20 | 40.50640 | 9.33572 | 26319 ft | 429 kts | 274° |
| 2026-04-27 19:20 | 40.51225 | 9.29720 | 26808 ft | 433 kts | 285° |
| 2026-04-27 19:20 | 40.52180 | 9.25965 | 27359 ft | 435 kts | 288° |
| 2026-04-27 19:20 | 40.53159 | 9.22191 | 27905 ft | 438 kts | 288° |
| 2026-04-27 19:21 | 40.54125 | 9.18386 | 28453 ft | 441 kts | 287° |
| 2026-04-27 19:21 | 40.55097 | 9.14551 | 28949 ft | 445 kts | 288° |
| 2026-04-27 19:21 | 40.56088 | 9.10681 | 29429 ft | 449 kts | 288° |
| 2026-04-27 19:21 | 40.57085 | 9.06793 | 29944 ft | 452 kts | 288° |
| 2026-04-27 19:22 | 40.58000 | 9.02826 | 30345 ft | 456 kts | 282° |
| 2026-04-27 19:22 | 40.58446 | 8.98703 | 30803 ft | 457 kts | 274° |
| 2026-04-27 19:22 | 40.58402 | 8.94526 | 31293 ft | 458 kts | 265° |
| 2026-04-27 19:22 | 40.57869 | 8.90425 | 31971 ft | 455 kts | 256° |
| 2026-04-27 19:23 | 40.56912 | 8.86475 | 32581 ft | 454 kts | 252° |
| 2026-04-27 19:23 | 40.55888 | 8.82581 | 33254 ft | 451 kts | 252° |
| 2026-04-27 19:23 | 40.54880 | 8.78696 | 33909 ft | 449 kts | 252° |
| 2026-04-27 19:23 | 40.53869 | 8.74820 | 34460 ft | 448 kts | 252° |
| 2026-04-27 19:24 | 40.52853 | 8.70965 | 34962 ft | 448 kts | 253° |
| 2026-04-27 19:24 | 40.51835 | 8.67106 | 35468 ft | 448 kts | 253° |
| 2026-04-27 19:24 | 40.50822 | 8.63250 | 35994 ft | 447 kts | 253° |
| 2026-04-27 19:24 | 40.49809 | 8.59400 | 36529 ft | 446 kts | 253° |
| 2026-04-27 19:25 | 40.48793 | 8.55558 | 37075 ft | 446 kts | 253° |
| 2026-04-27 19:25 | 40.47778 | 8.51724 | 37637 ft | 445 kts | 253° |
| 2026-04-27 19:25 | 40.46764 | 8.47895 | 38187 ft | 444 kts | 253° |
| 2026-04-27 19:25 | 40.45750 | 8.44073 | 38756 ft | 444 kts | 253° |
| 2026-04-27 19:26 | 40.44835 | 8.40225 | 39092 ft | 444 kts | 258° |
| 2026-04-27 19:26 | 40.44181 | 8.32043 | 39105 ft | 462 kts | 269° |
| 2026-04-27 19:27 | 40.43785 | 8.23461 | 39118 ft | 482 kts | 266° |
| 2026-04-27 19:27 | 40.43241 | 8.14557 | 39118 ft | 496 kts | 268° |
| 2026-04-27 19:28 | 40.42787 | 8.05528 | 39116 ft | 497 kts | 266° |
| 2026-04-27 19:28 | 40.42049 | 7.96518 | 39099 ft | 499 kts | 262° |
| 2026-04-27 19:29 | 40.40878 | 7.87557 | 39109 ft | 499 kts | 262° |
| 2026-04-27 19:29 | 40.39767 | 7.78595 | 39113 ft | 499 kts | 262° |
| 2026-04-27 19:30 | 40.38611 | 7.69640 | 39115 ft | 499 kts | 262° |
| 2026-04-27 19:30 | 40.37470 | 7.60687 | 39115 ft | 499 kts | 262° |
| 2026-04-27 19:31 | 40.36310 | 7.51739 | 39110 ft | 498 kts | 261° |
| 2026-04-27 19:31 | 40.35150 | 7.42798 | 39110 ft | 499 kts | 261° |
| 2026-04-27 19:32 | 40.33980 | 7.33856 | 39118 ft | 499 kts | 261° |
| 2026-04-27 19:32 | 40.32805 | 7.24920 | 39121 ft | 499 kts | 261° |
| 2026-04-27 19:33 | 40.31623 | 7.15988 | 39121 ft | 499 kts | 261° |
| 2026-04-27 19:33 | 40.30434 | 7.07055 | 39121 ft | 499 kts | 261° |
| 2026-04-27 19:34 | 40.29238 | 6.98126 | 39124 ft | 499 kts | 261° |
| 2026-04-27 19:34 | 40.28035 | 6.89199 | 39123 ft | 499 kts | 261° |
| 2026-04-27 19:35 | 40.26827 | 6.80285 | 39107 ft | 499 kts | 261° |
| 2026-04-27 19:35 | 40.25611 | 6.71365 | 39111 ft | 498 kts | 261° |
| 2026-04-27 19:36 | 40.24386 | 6.62449 | 39109 ft | 499 kts | 261° |
| 2026-04-27 19:36 | 40.23157 | 6.53536 | 39110 ft | 499 kts | 261° |
| 2026-04-27 19:37 | 40.21921 | 6.44637 | 39107 ft | 498 kts | 261° |
| 2026-04-27 19:37 | 40.20680 | 6.35742 | 39108 ft | 498 kts | 261° |
| 2026-04-27 19:38 | 40.19431 | 6.26855 | 39108 ft | 498 kts | 261° |
| 2026-04-27 19:38 | 40.18176 | 6.17970 | 39106 ft | 498 kts | 261° |
| 2026-04-27 19:39 | 40.16914 | 6.09090 | 39104 ft | 498 kts | 261° |
| 2026-04-27 19:39 | 40.15646 | 6.00217 | 39109 ft | 497 kts | 260° |
| 2026-04-27 19:40 | 40.14371 | 5.91344 | 39111 ft | 498 kts | 260° |
| 2026-04-27 19:40 | 40.13094 | 5.82480 | 39112 ft | 497 kts | 260° |
| 2026-04-27 19:41 | 40.11862 | 5.73607 | 39109 ft | 497 kts | 261° |
| 2026-04-27 19:41 | 40.10600 | 5.64764 | 39110 ft | 495 kts | 260° |
| 2026-04-27 19:41 | 40.09982 | 5.60421 | 39106 ft | 474 kts | 260° |
| 2026-04-27 19:42 | 40.09402 | 5.56327 | 39070 ft | 446 kts | 260° |
| 2026-04-27 19:42 | 40.08846 | 5.52433 | 38435 ft | 433 kts | 260° |
| 2026-04-27 19:42 | 40.08292 | 5.48575 | 37055 ft | 435 kts | 261° |
| 2026-04-27 19:42 | 40.07731 | 5.44668 | 35663 ft | 441 kts | 261° |
| 2026-04-27 19:43 | 40.07164 | 5.40729 | 34294 ft | 444 kts | 262° |
| 2026-04-27 19:43 | 40.06589 | 5.36744 | 33062 ft | 449 kts | 262° |
| 2026-04-27 19:43 | 40.06017 | 5.32816 | 32951 ft | 439 kts | 261° |
| 2026-04-27 19:43 | 40.05439 | 5.28815 | 32381 ft | 457 kts | 261° |
| 2026-04-27 19:44 | 40.04849 | 5.24742 | 31774 ft | 459 kts | 261° |
| 2026-04-27 19:44 | 40.04249 | 5.20651 | 31166 ft | 461 kts | 261° |
| 2026-04-27 19:44 | 40.03646 | 5.16541 | 30556 ft | 463 kts | 261° |
| 2026-04-27 19:44 | 40.03044 | 5.12433 | 29911 ft | 459 kts | 261° |
| 2026-04-27 19:45 | 40.02448 | 5.08377 | 29305 ft | 453 kts | 261° |
| 2026-04-27 19:45 | 40.01858 | 5.04367 | 28707 ft | 449 kts | 261° |
| 2026-04-27 19:45 | 40.01270 | 5.00393 | 28121 ft | 445 kts | 261° |
| 2026-04-27 19:45 | 40.00686 | 4.96455 | 27532 ft | 441 kts | 261° |
| 2026-04-27 19:46 | 40.00107 | 4.92549 | 26956 ft | 438 kts | 260° |
| 2026-04-27 19:46 | 39.99530 | 4.88670 | 26382 ft | 435 kts | 260° |
| 2026-04-27 19:46 | 39.98956 | 4.84827 | 25813 ft | 431 kts | 260° |
| 2026-04-27 19:46 | 39.98386 | 4.81020 | 25250 ft | 427 kts | 260° |
| 2026-04-27 19:47 | 39.97813 | 4.77251 | 24693 ft | 423 kts | 259° |
| 2026-04-27 19:47 | 39.97060 | 4.73568 | 24139 ft | 420 kts | 256° |
| 2026-04-27 19:47 | 39.96316 | 4.69911 | 23571 ft | 416 kts | 257° |
| 2026-04-27 19:47 | 39.95598 | 4.66285 | 22999 ft | 412 kts | 256° |
| 2026-04-27 19:48 | 39.94865 | 4.62695 | 22463 ft | 410 kts | 256° |
| 2026-04-27 19:48 | 39.94123 | 4.59134 | 21929 ft | 407 kts | 256° |
| 2026-04-27 19:48 | 39.93394 | 4.55598 | 21406 ft | 402 kts | 256° |
| 2026-04-27 19:48 | 39.92679 | 4.52092 | 20886 ft | 400 kts | 256° |
| 2026-04-27 19:49 | 39.91964 | 4.48613 | 20375 ft | 397 kts | 256° |
| 2026-04-27 19:49 | 39.91248 | 4.45161 | 19857 ft | 394 kts | 256° |
| 2026-04-27 19:49 | 39.90538 | 4.41732 | 19353 ft | 392 kts | 256° |
| 2026-04-27 19:49 | 39.89835 | 4.38326 | 18842 ft | 389 kts | 256° |
| 2026-04-27 19:50 | 39.89135 | 4.34952 | 18330 ft | 386 kts | 255° |
| 2026-04-27 19:50 | 39.88437 | 4.31596 | 17804 ft | 383 kts | 255° |
| 2026-04-27 19:50 | 39.87741 | 4.28260 | 17303 ft | 382 kts | 255° |
| 2026-04-27 19:50 | 39.87051 | 4.24942 | 16797 ft | 379 kts | 256° |
| 2026-04-27 19:51 | 39.86362 | 4.21642 | 16319 ft | 377 kts | 255° |
| 2026-04-27 19:51 | 39.85677 | 4.18361 | 15832 ft | 376 kts | 255° |
| 2026-04-27 19:51 | 39.84996 | 4.15093 | 15349 ft | 374 kts | 255° |
| 2026-04-27 19:51 | 39.84317 | 4.11841 | 14869 ft | 372 kts | 255° |
| 2026-04-27 19:52 | 39.83639 | 4.08608 | 14383 ft | 371 kts | 255° |
| 2026-04-27 19:52 | 39.82963 | 4.05386 | 13905 ft | 369 kts | 255° |
| 2026-04-27 19:52 | 39.82290 | 4.02182 | 13400 ft | 366 kts | 255° |
| 2026-04-27 19:52 | 39.81624 | 3.99016 | 12924 ft | 357 kts | 255° |
| 2026-04-27 19:53 | 39.80394 | 3.93188 | 12055 ft | 316 kts | 255° |
| 2026-04-27 19:53 | 39.79829 | 3.90510 | 11657 ft | 302 kts | 255° |
| 2026-04-27 19:53 | 39.79280 | 3.87915 | 11274 ft | 296 kts | 255° |
| 2026-04-27 19:54 | 39.78738 | 3.85350 | 10894 ft | 294 kts | 255° |
| 2026-04-27 19:54 | 39.78195 | 3.82789 | 10520 ft | 294 kts | 255° |
| 2026-04-27 19:54 | 39.77653 | 3.80239 | 10144 ft | 294 kts | 255° |
| 2026-04-27 19:54 | 39.77110 | 3.77682 | 9741 ft | 294 kts | 255° |
| 2026-04-27 19:55 | 39.76567 | 3.75133 | 9359 ft | 293 kts | 255° |
| 2026-04-27 19:55 | 39.76026 | 3.72593 | 8979 ft | 292 kts | 255° |
| 2026-04-27 19:55 | 39.75487 | 3.70063 | 8602 ft | 291 kts | 255° |
| 2026-04-27 19:55 | 39.74947 | 3.67541 | 8225 ft | 290 kts | 255° |
| 2026-04-27 19:56 | 39.74410 | 3.65024 | 7773 ft | 289 kts | 255° |
| 2026-04-27 19:56 | 39.73875 | 3.62529 | 7383 ft | 285 kts | 254° |
| 2026-04-27 19:56 | 39.73347 | 3.60061 | 7012 ft | 283 kts | 254° |
| 2026-04-27 19:56 | 39.72820 | 3.57602 | 6646 ft | 283 kts | 254° |
| 2026-04-27 19:57 | 39.72293 | 3.55151 | 6269 ft | 282 kts | 254° |
| 2026-04-27 19:57 | 39.71769 | 3.52715 | 5894 ft | 280 kts | 254° |
| 2026-04-27 19:57 | 39.71248 | 3.50295 | 5533 ft | 278 kts | 254° |
| 2026-04-27 19:57 | 39.70730 | 3.47891 | 5181 ft | 277 kts | 254° |
| 2026-04-27 19:58 | 39.70217 | 3.45515 | 5021 ft | 268 kts | 254° |
| 2026-04-27 19:58 | 39.69789 | 3.43163 | 4996 ft | 272 kts | 264° |
| 2026-04-27 19:58 | 39.69817 | 3.40714 | 5024 ft | 274 kts | 274° |
| 2026-04-27 19:58 | 39.69944 | 3.38240 | 5030 ft | 275 kts | 274° |
| 2026-04-27 19:59 | 39.70034 | 3.35760 | 5034 ft | 276 kts | 272° |
| 2026-04-27 19:59 | 39.70098 | 3.33279 | 5026 ft | 276 kts | 272° |
| 2026-04-27 19:59 | 39.70173 | 3.30797 | 5030 ft | 276 kts | 272° |
| 2026-04-27 19:59 | 39.70256 | 3.28311 | 5029 ft | 276 kts | 272° |
| 2026-04-27 20:00 | 39.70336 | 3.25834 | 5026 ft | 276 kts | 272° |